Terminal Aerodrome Forecast
Issued by NWS St Louis, MO

Home | Current Version | Previous Version | Text Only | Print | Product List | Glossary On
Versions: 1 2 3 4 5 6 7 8 9 10 11 12 13 14 15 16 17 18 19 20
000
FTUS43 KLSX 241413 AAB
TAFCOU
TAF AMD
KCOU 241413Z 2414/2512 30008KT P6SM BKN015
     FM241800 31008KT P6SM VCSH BKN050
     FM242300 32008KT P6SM BKN060
     FM250300 VRB03KT P6SM SCT060=

USA.gov is the U.S. government's official web portal to all federal, state and local government web resources and services.